Time;durP1;ratioP1;P1;durP2;ratioP2;P2;SDS_P1;SDS_P2;PMS_P1;PMS_P2;Temp;Humidity;BMP_temperature;BMP_pressure;BME280_temperature;BME280_humidity;BME280_pressure;Samples;Min_cycle;Max_cycle;Signal;HPM_P1;HPM_P2
2023/08/16 00:00:30;;;;;;;6.80;2.67;;;20.90;99.90;;;;;;5075299;28;20384;-92
2023/08/16 00:02:56;;;;;;;5.38;2.40;;;20.90;99.90;;;;;;5040383;28;20384;-91
2023/08/16 00:05:21;;;;;;;6.05;2.58;;;20.80;99.90;;;;;;5056764;28;20037;-93
2023/08/16 00:07:47;;;;;;;4.53;2.22;;;20.80;99.90;;;;;;5057148;28;20033;-92
2023/08/16 00:10:13;;;;;;;4.55;2.28;;;20.80;99.90;;;;;;5057272;28;20406;-92
2023/08/16 00:12:39;;;;;;;4.30;2.20;;;20.80;99.90;;;;;;5056820;28;20055;-91
2023/08/16 00:15:06;;;;;;;11.45;2.35;;;20.70;99.90;;;;;;5039889;28;20032;-91
2023/08/16 00:17:33;;;;;;;4.97;2.40;;;20.70;99.90;;;;;;5039944;28;20468;-91
2023/08/16 00:19:59;;;;;;;5.20;2.15;;;20.60;99.90;;;;;;5056646;28;20548;-91
2023/08/16 00:22:24;;;;;;;5.75;2.30;;;20.60;99.90;;;;;;5056902;28;20060;-92
2023/08/16 00:24:50;;;;;;;5.50;2.47;;;20.60;99.90;;;;;;5074588;28;20029;-91
2023/08/16 00:27:15;;;;;;;4.65;2.30;;;20.60;99.90;;;;;;5040496;28;20456;-91
2023/08/16 00:29:41;;;;;;;4.25;2.17;;;20.60;99.90;;;;;;5056849;28;20504;-92
2023/08/16 00:32:07;;;;;;;4.30;2.17;;;20.50;99.90;;;;;;5040083;28;20119;-91
2023/08/16 00:34:33;;;;;;;4.60;2.20;;;20.50;99.90;;;;;;5039824;28;20032;-91
2023/08/16 00:36:59;;;;;;;3.78;1.98;;;20.50;99.90;;;;;;5074193;28;20171;-91
2023/08/16 00:39:25;;;;;;;6.50;2.10;;;20.50;99.90;;;;;;5074573;28;20441;-92
2023/08/16 00:41:50;;;;;;;5.68;2.20;;;20.50;99.90;;;;;;5056789;28;20028;-91
2023/08/16 00:44:16;;;;;;;5.28;2.47;;;20.40;99.90;;;;;;5056852;28;20037;-92
2023/08/16 00:46:42;;;;;;;4.97;2.30;;;20.40;99.90;;;;;;5074568;28;20075;-91
2023/08/16 00:49:07;;;;;;;6.68;2.03;;;20.40;99.90;;;;;;5023741;28;20432;-91
2023/08/16 00:51:34;;;;;;;5.72;2.10;;;20.40;99.90;;;;;;5038803;28;20115;-92
2023/08/16 00:53:59;;;;;;;4.75;1.60;;;20.40;99.90;;;;;;5040096;28;20036;-91
2023/08/16 00:56:26;;;;;;;5.47;2.30;;;20.40;99.90;;;;;;5057886;28;20029;-91
2023/08/16 00:58:51;;;;;;;4.65;1.85;;;20.40;99.90;;;;;;5078800;28;20107;-91
2023/08/16 01:01:17;;;;;;;5.75;1.92;;;20.30;99.90;;;;;;5060380;28;20112;-91
2023/08/16 01:03:43;;;;;;;3.80;1.95;;;20.30;99.90;;;;;;5060168;28;20124;-91
2023/08/16 01:06:08;;;;;;;4.10;1.88;;;20.30;99.90;;;;;;5026779;28;20134;-91
2023/08/16 01:08:34;;;;;;;5.55;1.90;;;20.30;99.90;;;;;;5060357;28;20021;-92
2023/08/16 01:11:31;;;;;;;4.05;1.92;;;20.30;99.90;;;;;;5078283;28;20086;-91
2023/08/16 01:14:13;;;;;;;6.75;2.10;;;20.30;99.90;;;;;;5060428;28;20590;-91
2023/08/16 01:16:39;;;;;;;4.22;2.00;;;20.20;99.90;;;;;;5078495;28;20031;-92
2023/08/16 01:19:10;;;;;;;6.15;2.28;;;20.20;99.90;;;;;;5078239;28;20090;-92
2023/08/16 01:21:43;;;;;;;4.70;2.03;;;20.20;99.90;;;;;;5078365;28;20023;-91
2023/08/16 01:24:14;;;;;;;5.03;1.90;;;20.30;99.90;;;;;;5061190;28;20036;-90
2023/08/16 01:26:42;;;;;;;4.50;1.92;;;20.20;99.90;;;;;;5078742;28;20078;-89
2023/08/16 01:29:09;;;;;;;4.20;1.80;;;20.20;99.90;;;;;;5061567;28;20024;-90
2023/08/16 01:31:34;;;;;;;5.85;2.30;;;20.20;99.90;;;;;;5060984;28;20468;-90
2023/08/16 01:34:01;;;;;;;5.35;2.05;;;20.20;99.90;;;;;;5061084;28;20032;-89
2023/08/16 01:36:27;;;;;;;6.18;2.20;;;20.30;99.90;;;;;;5044126;28;20105;-89
2023/08/16 01:38:55;;;;;;;5.20;2.10;;;20.20;99.90;;;;;;5061138;28;20035;-89
2023/08/16 01:41:45;;;;;;;6.18;2.25;;;20.20;99.90;;;;;;5060951;28;20020;-88
2023/08/16 01:44:12;;;;;;;6.25;2.70;;;20.20;99.90;;;;;;5061348;28;20032;-89
2023/08/16 01:46:40;;;;;;;8.38;2.70;;;20.20;99.90;;;;;;5043647;28;20028;-89
2023/08/16 01:49:07;;;;;;;7.07;2.30;;;20.20;99.90;;;;;;5060987;28;20105;-89
2023/08/16 01:51:33;;;;;;;5.40;2.50;;;20.10;99.90;;;;;;5044454;28;20061;-89
2023/08/16 01:53:59;;;;;;;8.88;2.58;;;20.10;99.90;;;;;;5027420;28;20446;-89
2023/08/16 01:56:24;;;;;;;7.72;2.67;;;20.20;99.90;;;;;;5078569;28;20028;-89
2023/08/16 01:58:50;;;;;;;3.78;2.35;;;20.20;99.90;;;;;;5060899;28;20146;-89
2023/08/16 02:01:16;;;;;;;5.88;2.28;;;20.20;99.90;;;;;;5060354;28;20035;-89
2023/08/16 02:03:41;;;;;;;5.22;2.35;;;20.10;99.90;;;;;;5043924;28;20120;-89
2023/08/16 02:06:07;;;;;;;4.85;2.40;;;20.10;99.90;;;;;;5043498;28;20067;-89
2023/08/16 02:08:33;;;;;;;5.10;2.10;;;20.10;99.90;;;;;;5043686;28;20440;-89
2023/08/16 02:10:58;;;;;;;6.32;2.75;;;20.20;99.90;;;;;;5044043;28;20447;-89
2023/08/16 02:13:25;;;;;;;8.38;2.90;;;20.10;99.90;;;;;;5027083;28;20498;-89
2023/08/16 02:15:59;;;;;;;8.70;2.53;;;20.10;99.90;;;;;;5043810;28;20040;-89
2023/08/16 02:18:25;;;;;;;5.75;2.13;;;20.10;99.90;;;;;;5060451;28;20107;-89
2023/08/16 02:20:53;;;;;;;6.55;2.10;;;20.10;99.90;;;;;;5078084;28;20082;-89
2023/08/16 02:23:19;;;;;;;4.50;2.45;;;20.10;99.90;;;;;;5043690;28;20032;-89
2023/08/16 02:25:44;;;;;;;6.97;2.20;;;20.10;99.90;;;;;;5077649;28;20037;-89
2023/08/16 02:28:10;;;;;;;4.47;2.10;;;20.10;99.90;;;;;;5043543;28;20032;-88
2023/08/16 02:30:36;;;;;;;4.85;2.10;;;20.10;99.90;;;;;;5060109;28;20534;-88
2023/08/16 02:33:01;;;;;;;4.13;2.08;;;20.10;99.90;;;;;;5043725;28;20029;-90
2023/08/16 02:35:28;;;;;;;4.70;2.05;;;20.10;99.90;;;;;;5060496;28;20052;-89
2023/08/16 02:37:54;;;;;;;7.03;2.33;;;20.10;99.90;;;;;;5060070;28;20074;-90
2023/08/16 02:40:19;;;;;;;5.05;2.38;;;20.00;99.90;;;;;;5043350;28;20040;-89
2023/08/16 02:42:46;;;;;;;7.70;3.22;;;20.00;99.90;;;;;;5026704;28;20031;-89
2023/08/16 02:45:12;;;;;;;6.97;2.50;;;20.00;99.90;;;;;;5046669;28;20033;-89
2023/08/16 02:47:37;;;;;;;6.50;2.60;;;20.00;99.90;;;;;;5037995;28;20028;-92
2023/08/16 02:50:04;;;;;;;6.10;2.40;;;20.00;99.90;;;;;;5046894;28;20005;-89
2023/08/16 02:52:29;;;;;;;5.15;2.10;;;20.00;99.90;;;;;;5042995;28;20029;-89
2023/08/16 02:54:55;;;;;;;6.00;2.58;;;20.00;99.90;;;;;;5026627;28;20035;-89
2023/08/16 02:57:21;;;;;;;6.13;2.63;;;20.00;99.90;;;;;;5059722;28;20379;-89
2023/08/16 02:59:46;;;;;;;5.07;2.40;;;20.00;99.90;;;;;;5042788;28;20029;-89
2023/08/16 03:02:13;;;;;;;4.35;2.47;;;20.00;99.90;;;;;;5043106;28;20020;-89
2023/08/16 03:04:39;;;;;;;6.70;2.88;;;19.90;99.90;;;;;;5026242;28;20036;-89
2023/08/16 03:07:06;;;;;;;7.35;2.60;;;19.90;99.90;;;;;;5026170;28;20035;-89
2023/08/16 03:09:32;;;;;;;9.48;2.97;;;19.90;99.90;;;;;;5077058;28;20060;-89
2023/08/16 03:11:58;;;;;;;5.35;2.60;;;19.90;99.90;;;;;;5077058;28;20080;-89
2023/08/16 03:14:23;;;;;;;5.40;2.60;;;19.90;99.90;;;;;;5059361;28;20114;-89
2023/08/16 03:16:49;;;;;;;6.07;2.60;;;19.90;99.90;;;;;;5076241;28;20028;-90
2023/08/16 03:19:15;;;;;;;8.52;2.83;;;19.90;99.90;;;;;;5058578;28;20436;-87
2023/08/16 03:21:40;;;;;;;8.85;2.97;;;19.90;99.90;;;;;;5059796;28;20098;-88
2023/08/16 03:24:06;;;;;;;5.75;2.60;;;19.80;99.90;;;;;;5059833;28;20461;-88
2023/08/16 03:26:32;;;;;;;4.82;2.22;;;19.80;99.90;;;;;;5059979;28;20036;-88
2023/08/16 03:28:58;;;;;;;5.15;2.95;;;19.80;99.90;;;;;;5043303;28;20033;-88
2023/08/16 03:31:23;;;;;;;8.85;2.58;;;19.80;99.90;;;;;;5026517;28;20024;-88
2023/08/16 03:33:49;;;;;;;8.10;2.90;;;19.80;99.90;;;;;;5027336;28;20092;-88
2023/08/16 03:36:15;;;;;;;5.75;2.70;;;19.70;99.90;;;;;;5042177;28;20143;-88
2023/08/16 03:38:41;;;;;;;5.05;2.70;;;19.70;99.90;;;;;;5042516;28;20036;-88
2023/08/16 03:41:07;;;;;;;6.85;3.08;;;19.70;99.90;;;;;;5026226;28;20028;-88
2023/08/16 03:43:36;;;;;;;7.93;2.80;;;19.70;99.90;;;;;;5025611;28;20483;-88
2023/08/16 03:46:03;;;;;;;7.55;2.75;;;19.70;99.90;;;;;;5043129;28;20094;-88
2023/08/16 03:48:29;;;;;;;9.43;3.15;;;19.70;99.90;;;;;;5060127;28;20039;-88
2023/08/16 03:50:55;;;;;;;6.28;3.05;;;19.70;99.90;;;;;;5067733;28;20127;-88
2023/08/16 03:53:21;;;;;;;6.93;2.92;;;19.70;99.90;;;;;;5069052;28;20029;-87
2023/08/16 03:55:46;;;;;;;7.68;3.13;;;19.70;99.90;;;;;;5070629;28;20033;-88
2023/08/16 03:58:12;;;;;;;8.43;3.50;;;19.70;99.90;;;;;;5071135;28;20029;-88
2023/08/16 04:00:39;;;;;;;9.38;3.25;;;19.70;99.90;;;;;;5046750;28;20033;-89
2023/08/16 04:03:04;;;;;;;10.90;3.25;;;19.70;99.90;;;;;;5069426;28;20036;-88
2023/08/16 04:05:30;;;;;;;7.50;3.38;;;19.70;99.90;;;;;;5066383;28;20032;-88
2023/08/16 04:07:56;;;;;;;7.05;2.90;;;19.70;99.90;;;;;;5042651;28;20054;-88
2023/08/16 04:10:22;;;;;;;8.10;2.92;;;19.70;99.90;;;;;;5076278;28;20028;-88
2023/08/16 04:12:47;;;;;;;5.70;2.63;;;19.70;99.90;;;;;;5058550;28;20035;-89
2023/08/16 04:15:13;;;;;;;8.07;3.40;;;19.70;99.90;;;;;;5044216;28;20060;-88
2023/08/16 04:17:39;;;;;;;8.05;3.50;;;19.70;99.90;;;;;;5045050;28;20036;-88
2023/08/16 04:20:06;;;;;;;9.70;3.50;;;19.70;99.90;;;;;;5093463;28;20031;-89
2023/08/16 04:22:32;;;;;;;7.97;3.63;;;19.70;99.90;;;;;;5078712;28;20036;-88
2023/08/16 04:25:01;;;;;;;7.22;3.47;;;19.70;99.90;;;;;;5031053;28;20040;-88
2023/08/16 04:27:26;;;;;;;7.13;3.67;;;19.60;99.90;;;;;;5060498;28;20032;-88
2023/08/16 04:29:52;;;;;;;10.60;4.00;;;19.70;99.90;;;;;;5075068;28;20020;-88
2023/08/16 04:32:18;;;;;;;8.43;4.28;;;19.60;99.90;;;;;;5055326;28;20064;-89
2023/08/16 04:34:43;;;;;;;8.98;4.22;;;19.60;99.90;;;;;;5041546;28;20055;-88
2023/08/16 04:37:09;;;;;;;7.40;4.30;;;19.60;99.90;;;;;;5057410;28;20131;-88
2023/08/16 04:39:35;;;;;;;8.15;4.22;;;19.60;99.90;;;;;;5041030;28;20116;-88
2023/08/16 04:42:00;;;;;;;8.30;3.53;;;19.60;99.90;;;;;;5024376;28;20035;-88
2023/08/16 04:44:26;;;;;;;5.70;3.50;;;19.60;99.90;;;;;;5057756;28;20033;-88
2023/08/16 04:46:51;;;;;;;8.23;4.15;;;19.60;99.90;;;;;;5057513;28;20162;-89
2023/08/16 04:49:18;;;;;;;9.40;4.32;;;19.60;99.90;;;;;;5075257;28;20028;-88
2023/08/16 04:51:44;;;;;;;9.50;4.13;;;19.50;99.90;;;;;;5040871;28;20115;-88
2023/08/16 04:54:09;;;;;;;8.60;4.50;;;19.50;99.90;;;;;;5075086;28;20102;-88
2023/08/16 04:56:36;;;;;;;7.78;3.80;;;19.50;99.90;;;;;;5024646;28;20040;-88
2023/08/16 04:59:01;;;;;;;9.68;3.50;;;19.50;99.90;;;;;;5040101;28;20032;-88
2023/08/16 05:01:27;;;;;;;7.32;3.90;;;19.50;99.90;;;;;;5023890;28;20086;-88
2023/08/16 05:03:53;;;;;;;7.00;3.38;;;19.50;99.90;;;;;;5040497;28;20036;-89
2023/08/16 05:06:19;;;;;;;9.45;3.47;;;19.40;99.90;;;;;;5056862;28;20139;-88
2023/08/16 05:08:45;;;;;;;9.13;3.78;;;19.40;99.90;;;;;;5040273;28;20054;-88
2023/08/16 05:11:10;;;;;;;8.95;4.43;;;19.40;99.90;;;;;;5040263;28;20053;-88
2023/08/16 05:13:36;;;;;;;9.07;3.58;;;19.40;99.90;;;;;;5023922;28;20028;-88
2023/08/16 05:16:02;;;;;;;8.30;3.95;;;19.40;99.90;;;;;;5057077;28;20187;-88
2023/08/16 05:18:28;;;;;;;6.25;3.38;;;19.40;99.90;;;;;;5057128;28;20036;-88
2023/08/16 05:20:59;;;;;;;8.55;3.60;;;19.40;99.90;;;;;;5040034;28;20111;-92
2023/08/16 05:23:24;;;;;;;6.85;3.78;;;19.30;99.90;;;;;;5040196;28;20021;-88
2023/08/16 05:25:50;;;;;;;9.93;3.55;;;19.30;99.90;;;;;;5040726;28;20040;-88
2023/08/16 05:28:16;;;;;;;6.35;3.53;;;19.30;99.90;;;;;;5063562;28;20054;-89
2023/08/16 05:30:41;;;;;;;5.15;3.50;;;19.30;99.90;;;;;;5078749;28;20033;-88
2023/08/16 05:33:07;;;;;;;11.13;4.45;;;19.30;99.90;;;;;;5045799;28;20039;-88
2023/08/16 05:35:33;;;;;;;11.00;4.45;;;19.30;99.90;;;;;;5060382;28;20036;-88
2023/08/16 05:37:59;;;;;;;5.70;3.60;;;19.30;99.90;;;;;;5076373;28;20052;-89
2023/08/16 05:40:25;;;;;;;10.65;4.80;;;19.30;99.90;;;;;;5042685;28;20502;-88
2023/08/16 05:42:50;;;;;;;12.07;5.15;;;19.40;99.90;;;;;;5060943;28;20036;-88
2023/08/16 05:45:16;;;;;;;12.43;3.97;;;19.40;99.90;;;;;;5045687;28;20539;-88
2023/08/16 05:47:42;;;;;;;11.10;4.30;;;19.40;99.90;;;;;;5063560;28;20024;-88
2023/08/16 05:50:09;;;;;;;7.95;4.13;;;19.40;99.90;;;;;;5070828;28;20414;-88
2023/08/16 05:52:35;;;;;;;9.20;4.43;;;19.40;99.90;;;;;;5069072;28;20115;-88
2023/08/16 05:55:00;;;;;;;11.02;4.93;;;19.40;99.90;;;;;;5045358;28;20067;-89
2023/08/16 05:57:26;;;;;;;12.23;4.70;;;19.40;99.90;;;;;;5029472;28;20476;-89
2023/08/16 05:59:52;;;;;;;13.68;4.53;;;19.40;99.90;;;;;;5064526;28;20028;-88
2023/08/16 06:02:17;;;;;;;8.68;3.78;;;19.40;99.90;;;;;;5046817;28;20028;-88
2023/08/16 06:04:43;;;;;;;9.60;4.30;;;19.50;99.90;;;;;;5061163;28;20419;-89
2023/08/16 06:07:08;;;;;;;8.60;4.35;;;19.40;99.90;;;;;;5044441;28;20028;-89
2023/08/16 06:09:34;;;;;;;7.95;4.20;;;19.50;99.90;;;;;;5044520;28;20029;-89
2023/08/16 06:12:00;;;;;;;6.93;4.20;;;19.50;99.90;;;;;;5043444;28;20111;-91
2023/08/16 06:14:26;;;;;;;10.65;4.22;;;19.60;99.90;;;;;;5060487;28;20066;-89
2023/08/16 06:16:51;;;;;;;8.50;3.95;;;19.50;99.90;;;;;;5028139;28;20055;-89
2023/08/16 06:19:17;;;;;;;9.20;4.22;;;19.50;99.90;;;;;;5043715;28;20029;-89
2023/08/16 06:21:43;;;;;;;14.20;5.72;;;19.60;99.90;;;;;;5060648;28;20461;-89
2023/08/16 06:24:08;;;;;;;11.35;4.80;;;19.60;99.90;;;;;;5078237;28;20388;-89
2023/08/16 06:26:34;;;;;;;10.85;4.10;;;19.60;99.90;;;;;;5028415;28;20457;-91
2023/08/16 06:29:00;;;;;;;19.20;3.72;;;19.60;99.90;;;;;;5060333;28;20181;-90
2023/08/16 06:31:29;;;;;;;15.15;4.25;;;19.60;99.90;;;;;;5061835;28;20086;-89
2023/08/16 06:33:55;;;;;;;9.77;4.07;;;19.60;99.90;;;;;;5044787;28;20033;-90
2023/08/16 06:36:20;;;;;;;7.93;3.40;;;19.70;99.90;;;;;;5077009;28;20111;-88
2023/08/16 06:38:46;;;;;;;8.73;3.50;;;19.70;99.90;;;;;;5042370;28;20082;-80
2023/08/16 06:41:12;;;;;;;9.10;3.42;;;19.70;99.90;;;;;;5040965;28;20103;-76
2023/08/16 06:43:38;;;;;;;7.38;3.25;;;19.70;99.90;;;;;;5057505;28;20055;-76
2023/08/16 06:46:04;;;;;;;7.28;3.17;;;19.70;99.90;;;;;;5057113;28;20473;-77
2023/08/16 06:48:31;;;;;;;7.85;3.63;;;19.80;99.90;;;;;;5074951;28;20041;-76
2023/08/16 06:50:56;;;;;;;8.07;3.33;;;19.80;99.90;;;;;;5024568;28;20112;-76
2023/08/16 06:53:22;;;;;;;6.60;2.75;;;19.80;99.90;;;;;;5057181;28;20052;-75
2023/08/16 06:55:48;;;;;;;11.05;3.80;;;19.80;99.90;;;;;;5073835;28;20036;-79
2023/08/16 06:58:13;;;;;;;6.75;2.80;;;19.90;99.90;;;;;;5055797;28;20029;-75
2023/08/16 07:00:45;;;;;;;9.20;3.30;;;19.90;99.90;;;;;;5076160;28;20035;-76
2023/08/16 07:03:11;;;;;;;7.63;2.90;;;19.90;99.90;;;;;;5089388;28;20016;-76
2023/08/16 07:05:36;;;;;;;8.02;3.10;;;19.90;99.90;;;;;;5078237;28;20040;-75
2023/08/16 07:08:03;;;;;;;6.07;3.10;;;19.90;99.90;;;;;;5074657;28;20033;-75
2023/08/16 07:10:29;;;;;;;8.95;2.55;;;20.00;99.90;;;;;;5040392;28;20081;-76
2023/08/16 07:12:55;;;;;;;7.35;3.00;;;20.00;99.90;;;;;;5075047;28;20384;-74
2023/08/16 07:15:21;;;;;;;10.43;3.35;;;20.00;99.90;;;;;;5057450;28;20025;-76
2023/08/16 07:17:46;;;;;;;5.65;3.22;;;20.00;99.90;;;;;;5075484;28;20021;-75
2023/08/16 07:20:12;;;;;;;8.82;3.03;;;20.10;99.90;;;;;;5074511;28;20029;-76
2023/08/16 07:22:38;;;;;;;7.40;2.50;;;20.10;99.90;;;;;;5074480;28;20097;-75
2023/08/16 07:25:05;;;;;;;6.80;2.60;;;20.10;99.90;;;;;;5074285;28;20037;-75
2023/08/16 07:27:31;;;;;;;7.65;2.92;;;20.10;99.90;;;;;;5074267;28;20052;-76
2023/08/16 07:29:57;;;;;;;9.77;3.38;;;20.10;99.90;;;;;;5056367;28;20029;-76
2023/08/16 07:32:23;;;;;;;10.85;3.50;;;20.10;99.90;;;;;;5039655;28;20085;-76
2023/08/16 07:34:49;;;;;;;7.30;3.22;;;20.10;99.90;;;;;;5056383;28;20043;-76
2023/08/16 07:37:14;;;;;;;9.45;3.30;;;20.20;99.90;;;;;;5056136;28;20052;-76
2023/08/16 07:39:40;;;;;;;9.93;3.45;;;20.20;99.90;;;;;;5074095;28;20464;-76
2023/08/16 07:42:09;;;;;;;9.43;3.22;;;20.20;99.90;;;;;;5074468;28;20059;-76
2023/08/16 07:44:35;;;;;;;7.57;3.20;;;20.20;99.90;;;;;;5074020;28;20036;-77
2023/08/16 07:47:01;;;;;;;14.13;3.88;;;20.20;99.90;;;;;;5073692;28;20032;-75
2023/08/16 07:49:27;;;;;;;10.30;3.38;;;20.20;99.90;;;;;;5073938;28;20025;-76
2023/08/16 07:51:56;;;;;;;6.70;3.13;;;20.20;99.90;;;;;;5073810;28;20028;-75
2023/08/16 07:54:23;;;;;;;7.78;3.30;;;20.20;99.90;;;;;;5055984;28;20032;-76
2023/08/16 07:56:49;;;;;;;7.30;3.28;;;20.20;99.90;;;;;;5076194;28;20025;-95
2023/08/16 07:59:15;;;;;;;10.02;3.05;;;20.30;99.90;;;;;;5040535;28;20048;-72
2023/08/16 08:01:40;;;;;;;7.97;3.00;;;20.30;99.90;;;;;;5074041;28;20055;-72
2023/08/16 08:04:06;;;;;;;8.60;2.95;;;20.30;99.90;;;;;;5073864;28;20108;-72
2023/08/16 08:06:33;;;;;;;9.23;2.92;;;20.30;99.90;;;;;;5055978;28;20048;-72
2023/08/16 08:08:58;;;;;;;9.63;3.60;;;20.40;99.90;;;;;;5079719;28;20036;-79
2023/08/16 08:11:24;;;;;;;9.30;3.00;;;20.40;99.90;;;;;;5063891;28;20179;-78
2023/08/16 08:13:49;;;;;;;10.13;3.05;;;20.40;99.90;;;;;;5046703;28;20426;-78
2023/08/16 08:16:15;;;;;;;8.20;2.88;;;20.50;99.90;;;;;;5080109;28;20549;-78
2023/08/16 08:18:41;;;;;;;5.38;2.80;;;20.50;99.90;;;;;;5080439;28;20103;-79
2023/08/16 08:21:06;;;;;;;5.70;2.88;;;20.50;99.90;;;;;;5042655;28;20028;-78
2023/08/16 08:23:32;;;;;;;7.18;2.60;;;20.50;99.90;;;;;;5074666;28;20021;-78
2023/08/16 08:25:58;;;;;;;7.55;2.42;;;20.50;99.90;;;;;;5039697;28;20164;-79
2023/08/16 08:28:23;;;;;;;6.32;2.58;;;20.60;99.90;;;;;;5039628;28;20060;-79
2023/08/16 08:30:49;;;;;;;8.82;3.50;;;20.60;99.90;;;;;;5039071;28;20103;-78
2023/08/16 08:33:15;;;;;;;6.85;2.80;;;20.60;99.90;;;;;;5023124;28;20372;-79
2023/08/16 08:35:40;;;;;;;11.43;3.00;;;20.70;99.90;;;;;;5059054;28;20111;-78
2023/08/16 08:38:06;;;;;;;9.60;3.15;;;20.70;99.90;;;;;;5074484;28;20360;-78
2023/08/16 08:40:32;;;;;;;6.15;2.50;;;20.70;99.90;;;;;;5055647;28;20032;-78
2023/08/16 08:43:03;;;;;;;13.75;3.40;;;20.70;99.90;;;;;;5073476;28;20043;-78
2023/08/16 08:45:30;;;;;;;9.52;2.80;;;20.70;99.90;;;;;;5056458;28;20069;-78
2023/08/16 08:47:59;;;;;;;9.43;2.60;;;20.70;99.90;;;;;;5073359;28;20020;-78
2023/08/16 08:50:29;;;;;;;5.90;2.88;;;20.80;99.90;;;;;;5055307;28;20388;-79
2023/08/16 08:52:56;;;;;;;7.93;2.80;;;20.80;99.90;;;;;;5074187;28;20361;-77
2023/08/16 08:55:25;;;;;;;7.80;2.90;;;20.90;99.90;;;;;;5074572;28;20119;-78
2023/08/16 08:57:56;;;;;;;7.68;3.22;;;20.90;99.90;;;;;;5040803;28;20025;-79
2023/08/16 09:00:25;;;;;;;11.77;3.20;;;21.00;99.90;;;;;;5074202;28;20070;-79
2023/08/16 09:02:51;;;;;;;5.97;3.47;;;21.00;99.90;;;;;;5057416;28;20020;-76
2023/08/16 09:05:20;;;;;;;8.55;3.60;;;21.00;99.90;;;;;;5055614;28;20068;-78
2023/08/16 09:07:47;;;;;;;5.95;3.17;;;21.10;99.90;;;;;;5073420;28;20029;-78
2023/08/16 09:10:13;;;;;;;7.85;3.33;;;21.10;99.90;;;;;;5055374;28;20059;-78
2023/08/16 09:12:39;;;;;;;7.97;3.88;;;21.20;99.90;;;;;;5038486;28;20464;-79
2023/08/16 09:15:07;;;;;;;7.97;3.70;;;21.20;99.90;;;;;;5073102;28;20107;-78
2023/08/16 09:17:33;;;;;;;9.27;4.18;;;21.20;99.90;;;;;;5074632;28;20028;-79
2023/08/16 09:20:00;;;;;;;8.93;3.90;;;21.20;99.90;;;;;;5076966;28;20029;-79
2023/08/16 09:22:27;;;;;;;13.70;4.13;;;21.30;99.90;;;;;;5076476;28;20469;-79
2023/08/16 09:24:56;;;;;;;7.30;3.08;;;21.30;99.90;;;;;;5076499;28;20028;-78
2023/08/16 09:27:22;;;;;;;11.45;3.50;;;21.40;99.90;;;;;;5058867;28;20024;-79
2023/08/16 09:29:49;;;;;;;9.38;3.38;;;21.40;99.90;;;;;;5058641;28;20029;-78
2023/08/16 09:32:14;;;;;;;8.10;5.07;;;21.40;99.90;;;;;;5076686;28;20508;-78
2023/08/16 09:34:40;;;;;;;11.68;4.57;;;21.50;99.90;;;;;;5076660;28;20099;-79
2023/08/16 09:37:07;;;;;;;7.63;3.65;;;21.60;99.90;;;;;;5058409;28;20049;-79
2023/08/16 09:39:33;;;;;;;10.00;3.65;;;21.50;99.90;;;;;;5076716;28;20467;-79
2023/08/16 09:41:59;;;;;;;7.20;3.17;;;21.60;99.90;;;;;;5058588;28;20111;-81
2023/08/16 09:44:29;;;;;;;11.23;3.13;;;21.60;99.90;;;;;;5058985;28;20016;-79
2023/08/16 09:46:57;;;;;;;8.55;3.30;;;21.70;99.90;;;;;;5077015;28;20063;-79
2023/08/16 09:49:23;;;;;;;8.02;3.30;;;21.70;99.90;;;;;;5058771;28;20059;-77
2023/08/16 09:51:50;;;;;;;7.82;3.63;;;21.80;99.90;;;;;;5079837;28;20069;-78
2023/08/16 09:54:17;;;;;;;7.22;2.70;;;21.80;99.90;;;;;;5080951;28;20024;-78
2023/08/16 09:56:44;;;;;;;15.70;2.70;;;21.80;99.90;;;;;;5065105;28;20472;-78
2023/08/16 09:59:13;;;;;;;11.52;2.92;;;21.90;99.90;;;;;;5074199;28;20063;-79
2023/08/16 10:01:40;;;;;;;6.75;2.70;;;21.90;99.90;;;;;;5074082;28;20028;-78
2023/08/16 10:04:07;;;;;;;6.25;2.50;;;22.00;99.90;;;;;;5080847;28;20020;-78
2023/08/16 10:06:34;;;;;;;6.15;2.78;;;22.00;99.90;;;;;;5059943;28;20459;-78
2023/08/16 10:09:04;;;;;;;6.38;2.63;;;22.10;99.90;;;;;;5064397;28;20024;-78
2023/08/16 10:11:37;;;;;;;7.88;3.15;;;22.10;99.90;;;;;;5072522;28;20078;-78
2023/08/16 10:14:12;;;;;;;9.60;3.45;;;22.10;99.90;;;;;;5079403;28;20008;-78
2023/08/16 10:16:38;;;;;;;9.48;3.25;;;22.20;99.90;;;;;;5061079;28;20461;-79
2023/08/16 10:19:06;;;;;;;8.40;3.30;;;22.20;99.90;;;;;;5075956;28;20035;-78
2023/08/16 10:21:39;;;;;;;5.03;2.63;;;22.30;99.90;;;;;;5076169;28;20048;-79
2023/08/16 10:24:09;;;;;;;6.00;2.78;;;22.30;99.90;;;;;;5058025;28;20025;-79
2023/08/16 10:26:38;;;;;;;8.25;2.85;;;22.40;99.90;;;;;;5058389;28;20487;-78
2023/08/16 10:29:08;;;;;;;6.57;2.70;;;22.50;99.90;;;;;;5058234;28;20059;-85
2023/08/16 10:31:40;;;;;;;6.93;2.22;;;22.50;99.90;;;;;;5059567;28;20028;-90
2023/08/16 10:34:09;;;;;;;6.63;2.88;;;22.50;99.90;;;;;;5061805;28;20460;-90
2023/08/16 10:36:35;;;;;;;10.80;3.17;;;22.60;99.90;;;;;;5060614;28;20056;-89
2023/08/16 10:39:00;;;;;;;7.53;3.03;;;22.60;99.90;;;;;;5059708;28;20046;-85
2023/08/16 10:41:26;;;;;;;7.03;2.78;;;22.60;99.90;;;;;;5042533;28;20017;-85
2023/08/16 10:43:53;;;;;;;10.57;2.88;;;22.70;99.90;;;;;;5061441;28;20101;-85
2023/08/16 10:49:42;;;;;;;6.93;2.40;;;22.70;99.90;;;;;;5078219;28;20118;-83
2023/08/16 10:55:30;;;;;;;6.15;2.40;;;22.90;99.90;;;;;;5077189;28;20031;-88
2023/08/16 10:57:56;;;;;;;7.65;2.97;;;22.90;99.90;;;;;;5057645;28;20388;-87
2023/08/16 11:00:40;;;;;;;5.43;2.47;;;23.00;99.90;;;;;;5060187;28;20089;-83
2023/08/16 11:03:18;;;;;;;5.22;2.40;;;23.00;99.90;;;;;;5077405;28;20017;-82
2023/08/16 11:05:44;;;;;;;5.47;2.20;;;23.10;99.90;;;;;;5075994;28;20055;-84
2023/08/16 11:08:10;;;;;;;2.72;1.80;;;23.10;99.90;;;;;;5042298;28;20468;-83
2023/08/16 11:10:37;;;;;;;5.05;2.25;;;23.20;99.90;;;;;;5058409;28;20440;-83
2023/08/16 11:13:13;;;;;;;7.38;2.60;;;23.20;99.90;;;;;;5058592;28;20066;-83
2023/08/16 11:15:42;;;;;;;6.47;2.72;;;23.30;99.90;;;;;;5026833;28;20148;-84
2023/08/16 11:18:08;;;;;;;5.50;2.45;;;23.40;99.90;;;;;;5041172;28;20052;-84
2023/08/16 11:20:34;;;;;;;5.88;2.10;;;23.40;99.90;;;;;;5068402;28;20027;-82
2023/08/16 11:23:04;;;;;;;5.55;2.10;;;23.50;99.90;;;;;;5063965;28;20009;-83
2023/08/16 11:25:33;;;;;;;3.97;2.03;;;23.50;99.90;;;;;;5062000;28;20041;-90
2023/08/16 11:28:10;;;;;;;5.88;2.17;;;23.50;99.90;;;;;;5068761;28;20033;-84
2023/08/16 11:30:36;;;;;;;7.95;2.22;;;23.60;99.90;;;;;;5061348;28;20090;-84
2023/08/16 11:33:02;;;;;;;5.70;2.30;;;23.70;99.90;;;;;;5040120;28;20021;-84
2023/08/16 11:35:28;;;;;;;5.95;2.28;;;23.70;99.90;;;;;;5041064;28;20029;-85
2023/08/16 11:37:54;;;;;;;7.85;2.42;;;23.70;99.90;;;;;;5053417;28;20045;-84
2023/08/16 11:40:29;;;;;;;5.07;2.53;;;23.80;99.90;;;;;;5037849;28;20043;-85
2023/08/16 11:43:07;;;;;;;6.35;2.00;;;23.80;99.90;;;;;;5048101;28;20056;-85
2023/08/16 11:45:33;;;;;;;6.75;2.10;;;23.80;99.90;;;;;;5032325;28;20080;-85
2023/08/16 11:48:02;;;;;;;3.33;1.60;;;23.80;99.90;;;;;;5037129;28;20389;-84
2023/08/16 11:50:28;;;;;;;4.32;1.40;;;23.80;99.90;;;;;;5037757;28;20025;-84
2023/08/16 11:53:01;;;;;;;5.10;2.10;;;23.90;99.90;;;;;;5020815;28;20035;-84
2023/08/16 11:55:29;;;;;;;6.97;2.40;;;23.90;99.90;;;;;;5056526;28;20037;-83
2023/08/16 11:58:05;;;;;;;5.63;2.10;;;23.90;99.90;;;;;;5066842;28;20039;-83
2023/08/16 12:00:33;;;;;;;5.68;2.15;;;24.00;99.90;;;;;;5061657;28;20016;-84
2023/08/16 12:03:02;;;;;;;8.50;2.63;;;24.10;99.90;;;;;;5078111;28;20009;-83
2023/08/16 12:05:39;;;;;;;6.38;2.47;;;24.10;99.90;;;;;;5078094;28;20040;-83
2023/08/16 12:08:07;;;;;;;5.78;2.47;;;24.20;99.90;;;;;;5061268;28;20013;-84
2023/08/16 12:10:33;;;;;;;8.65;2.30;;;24.20;99.90;;;;;;5077472;28;20013;-85
2023/08/16 12:13:09;;;;;;;9.68;2.65;;;24.20;99.90;;;;;;5060175;28;20020;-90
2023/08/16 12:15:35;;;;;;;11.40;2.70;;;24.30;99.90;;;;;;5065261;28;20025;-94
2023/08/16 12:18:00;;;;;;;4.45;2.58;;;24.30;99.90;;;;;;5058997;28;20032;-89
2023/08/16 12:20:26;;;;;;;4.63;2.10;;;24.30;99.90;;;;;;5055084;28;20127;-89
2023/08/16 12:22:55;;;;;;;7.30;2.38;;;24.40;99.90;;;;;;5038681;28;20029;-88
2023/08/16 12:25:21;;;;;;;9.60;2.40;;;24.40;99.90;;;;;;5057514;28;20025;-88
2023/08/16 12:27:47;;;;;;;4.22;1.98;;;24.40;99.90;;;;;;5054881;28;20545;-89
2023/08/16 12:30:13;;;;;;;4.80;2.00;;;24.40;99.90;;;;;;5054615;28;20040;-88
2023/08/16 12:32:38;;;;;;;4.03;1.92;;;24.50;99.90;;;;;;5037007;28;20032;-89
2023/08/16 12:35:04;;;;;;;3.25;1.67;;;24.50;99.90;;;;;;5019734;28;20055;-78
2023/08/16 12:37:30;;;;;;;4.38;1.70;;;24.50;99.90;;;;;;5052308;28;20045;-78
2023/08/16 12:39:56;;;;;;;3.15;1.65;;;24.60;99.90;;;;;;5052563;28;20032;-78
2023/08/16 12:42:22;;;;;;;6.88;1.85;;;24.70;99.90;;;;;;5052331;28;20060;-78
2023/08/16 12:44:47;;;;;;;4.32;2.25;;;24.70;99.90;;;;;;5056294;28;20036;-79
2023/08/16 12:47:13;;;;;;;4.00;2.05;;;24.80;99.90;;;;;;5053717;28;20021;-78
2023/08/16 12:49:39;;;;;;;5.68;1.80;;;24.80;99.90;;;;;;5055750;28;20036;-79